createdAt,value
2022-10-14T00:03:46.330Z,102.35476
2022-10-14T00:08:47.906Z,121.52161
2022-10-14T00:13:49.542Z,115.58774
2022-10-14T00:18:51.291Z,88.2623
2022-10-14T00:23:52.917Z,152.81356
2022-10-14T00:28:54.584Z,199.60166
2022-10-14T00:33:56.238Z,129.54217
2022-10-14T00:38:57.795Z,102.76289
2022-10-14T00:43:59.389Z,127.33333
2022-10-14T00:49:01.186Z,101.54476
2022-10-14T00:54:02.839Z,93.51456
2022-10-14T00:59:04.430Z,147.97351
2022-10-14T01:04:06.070Z,134.71207
2022-10-14T01:09:07.660Z,158.63415
2022-10-14T01:14:09.245Z,126.78932
2022-10-14T01:19:10.856Z,90.31829
2022-10-14T01:24:12.425Z,84.31891
2022-10-14T01:29:13.991Z,157.88889
2022-10-14T01:34:15.722Z,132.3792
2022-10-14T01:39:17.309Z,104
2022-10-14T01:44:18.879Z,144.65147
2022-10-14T01:49:20.523Z,144
2022-10-14T01:54:22.094Z,120.5043
2022-10-14T01:59:23.672Z,127.8806
2022-10-14T02:04:25.324Z,150.71141
2022-10-14T02:09:26.975Z,140.80511
2022-10-14T02:14:28.667Z,135.30435
2022-10-14T02:19:30.245Z,168
2022-10-14T02:24:31.848Z,203.91561
2022-10-14T02:29:33.412Z,138.93671
2022-10-14T02:34:35.010Z,99.94937
2022-10-14T02:39:36.643Z,84.9611
2022-10-14T02:44:38.198Z,108.70588
2022-10-14T02:49:39.838Z,97.23383
2022-10-14T02:54:41.429Z,109.14745
2022-10-14T02:59:42.984Z,172.99628
2022-10-14T03:04:44.622Z,162.43972
2022-10-14T03:09:46.225Z,154.9589
2022-10-14T03:14:47.792Z,159.38462
2022-10-14T03:19:49.377Z,151.40741
2022-10-14T03:24:50.945Z,120.5043
2022-10-14T03:29:52.536Z,142.70968
2022-10-14T03:34:54.183Z,127.8806
2022-10-14T03:39:55.788Z,115.11111
2022-10-14T03:44:57.397Z,114.16575
2022-10-14T03:49:59.080Z,102.35476
2022-10-14T03:55:00.772Z,110.48649
2022-10-14T04:00:02.401Z,95.72414
2022-10-14T04:05:03.989Z,109.5914
2022-10-14T04:10:05.561Z,168.81752
2022-10-14T04:15:07.194Z,174.71161
2022-10-14T04:20:08.791Z,145.96721
2022-10-14T04:25:10.388Z,193.39271
2022-10-14T04:30:11.953Z,179.1145
2022-10-14T04:35:13.501Z,167.18841
2022-10-14T04:40:15.170Z,144
2022-10-14T04:45:16.925Z,147.97351
2022-10-14T04:50:18.541Z,125.71091
2022-10-14T04:55:20.112Z,120
2022-10-14T05:00:21.694Z,135.30435
2022-10-14T05:05:23.276Z,110.03774
2022-10-14T05:10:24.849Z,103.17313
2022-10-14T05:15:26.452Z,102.76289
2022-10-14T05:20:28.034Z,112.76712
2022-10-14T05:25:29.651Z,164.78853
2022-10-14T05:30:34.517Z,168
2022-10-14T05:35:57.483Z,145.30719
2022-10-14T05:41:00.239Z,96.09877
2022-10-14T05:46:01.849Z,89.62648
2022-10-14T05:51:03.467Z,153.52381
2022-10-14T05:56:05.057Z,206.12766
2022-10-14T06:01:06.641Z,181.83784
2022-10-14T06:06:08.260Z,161.66784
2022-10-14T06:11:09.899Z,158.63415
2022-10-14T06:16:11.498Z,137.10345
2022-10-14T06:21:13.113Z,153.52381
2022-10-14T06:26:14.704Z,162.43972
2022-10-14T06:31:16.337Z,178.22053
2022-10-14T06:36:17.966Z,182.75969
2022-10-14T06:41:19.635Z,191.38956
2022-10-14T06:46:21.281Z,150.71141
2022-10-14T06:51:22.878Z,114.63712
2022-10-14T06:56:24.471Z,138.32177
2022-10-14T07:01:26.133Z,151.40741
2022-10-14T07:06:27.805Z,171.30627
2022-10-14T07:11:29.391Z,116.06704
2022-10-14T07:16:30.990Z,121.52161
2022-10-14T07:21:32.663Z,174.71161
2022-10-14T07:26:34.260Z,163.21708
2022-10-14T07:31:35.869Z,178.22053
2022-10-14T07:36:37.469Z,180.92308
2022-10-14T07:41:39.087Z,198.54545
2022-10-14T07:46:40.669Z,183.68872
2022-10-14T07:51:42.305Z,216.56637
2022-10-14T07:56:43.875Z,184.625
2022-10-14T08:01:45.514Z,209.51724
2022-10-14T08:06:47.192Z,203.91561
2022-10-14T08:11:48.781Z,199.60166
2022-10-14T08:16:50.389Z,201.74059
2022-10-14T08:21:52.082Z,191.38956
2022-10-14T08:26:53.670Z,184.625
2022-10-14T08:31:55.287Z,179.1145
2022-10-14T08:36:56.936Z,157.88889
2022-10-14T08:40:31.535Z,159.38462
2022-10-14T08:43:48.656Z,170.47059
2022-10-14T08:48:50.226Z,151.40741
2022-10-14T08:53:51.857Z,149.33333
2022-10-14T08:58:53.451Z,141.4359
2022-10-14T09:03:55.058Z,152.10811
2022-10-14T09:09:10.247Z,150.71141
2022-10-14T09:14:11.828Z,138.93671
2022-10-14T09:19:13.476Z,140.17834
2022-10-14T09:24:52.859Z,144
2022-10-14T09:29:54.458Z,137.71069
2022-10-14T09:34:56.065Z,139.55556
2022-10-14T09:39:57.700Z,128.98498
2022-10-14T09:44:59.297Z,155.68385
2022-10-14T09:50:00.968Z,135.90031
2022-10-14T09:55:02.572Z,113.69697
2022-10-14T10:00:04.167Z,100.34518
2022-10-14T10:05:05.783Z,94.2439
2022-10-14T10:10:07.378Z,91.01671
2022-10-14T10:15:08.996Z,89.62648
2022-10-14T10:20:10.638Z,115.58774
2022-10-14T10:25:12.238Z,113.23077
2022-10-14T10:30:13.802Z,122.55072
2022-10-14T10:35:15.393Z,112.30601
2022-10-14T10:40:17.093Z,117.03371
2022-10-14T10:45:18.755Z,126.78932
2022-10-14T10:50:20.416Z,130.66667
2022-10-14T10:55:22.033Z,120
2022-10-14T11:05:25.365Z,111.3913
2022-10-14T11:10:27.018Z,106.53298
2022-10-14T11:15:28.653Z,105.25654
2022-10-14T11:20:30.350Z,115.58774
2022-10-14T11:25:31.945Z,111.3913
2022-10-14T11:30:33.538Z,103.17313
2022-10-14T11:40:36.800Z,101.14286
2022-10-14T11:45:38.386Z,102.76289
2022-10-14T11:50:39.982Z,101.54476
2022-10-14T11:55:41.585Z,97.61596
2022-10-14T12:00:43.268Z,93.87835
2022-10-14T12:05:44.936Z,90.66667
2022-10-14T12:10:46.540Z,95.72414
2022-10-14T12:15:48.126Z,98
2022-10-14T12:20:49.847Z,99.16373
2022-10-14T12:25:51.440Z,99.55556
2022-10-14T12:30:53.030Z,92.79227
2022-10-14T12:35:54.640Z,88.2623
2022-10-14T12:40:56.288Z,89.97156
2022-10-14T12:45:57.891Z,91.36842
2022-10-14T12:50:59.520Z,94.98039
2022-10-14T12:56:01.112Z,96.47525
2022-10-14T13:01:02.794Z,101.54476
2022-10-14T13:06:04.382Z,93.15254
2022-10-14T13:11:05.955Z,87.25581
2022-10-14T13:16:07.549Z,86.26328
2022-10-14T13:21:09.192Z,86.59259
2022-10-14T13:26:10.788Z,82.73874
2022-10-14T13:31:12.397Z,80.58537
2022-10-14T13:36:14.075Z,80.88889
2022-10-14T13:41:15.706Z,82.73874
2022-10-14T13:46:17.270Z,80.58537
2022-10-14T13:51:31.980Z,79.38462
2022-10-14T13:56:37.476Z,86.92343
2022-10-14T14:01:39.182Z,89.97156
2022-10-14T14:06:52.312Z,82.73874
2022-10-14T14:12:05.027Z,80.28319
2022-10-14T14:17:06.636Z,79.08772
2022-10-14T14:22:08.285Z,78.49782
2022-10-14T14:27:09.914Z,78.79212
2022-10-14T14:32:11.553Z,78.20479
2022-10-14T14:37:43.840Z,78.20479
2022-10-14T14:42:54.780Z,78.20479
2022-10-14T14:47:56.374Z,82.11659
2022-10-14T14:57:59.651Z,84.9611
2022-10-14T15:03:01.416Z,82.42697
2022-10-14T15:08:03.021Z,81.80761
2022-10-14T15:13:04.632Z,81.80761
2022-10-14T15:18:06.290Z,83.68254
2022-10-14T15:23:07.883Z,87.58974
2022-10-14T15:28:09.471Z,88.2623
2022-10-14T15:33:11.020Z,89.62648
2022-10-14T15:38:16.212Z,91.36842
2022-10-14T15:43:18.425Z,97.23383
2022-10-14T15:48:20.011Z,104.83551
2022-10-14T15:53:21.636Z,106.53298
2022-10-14T15:58:28.320Z,99.16373
2022-10-14T16:03:29.884Z,98
2022-10-14T16:08:31.455Z,97.23383
2022-10-14T16:13:33.051Z,99.16373
2022-10-14T16:18:34.647Z,103.58549
2022-10-14T16:23:36.361Z,107.39523
2022-10-14T16:28:38.043Z,104.83551
2022-10-14T16:33:24.269Z,109.14745
2022-10-14T16:38:25.854Z,103.58549
2022-10-14T16:41:58.087Z,114.63712
2022-10-14T16:46:59.608Z,110.93767
2022-10-14T16:52:01.543Z,105.25654
2022-10-14T16:54:36.207Z,108.26667
2022-10-14T16:56:54.885Z,115.58774
2022-10-14T17:00:11.131Z,112.76712
2022-10-14T17:04:43.060Z,164.78853
2022-10-14T17:09:44.584Z,144.65147
2022-10-14T17:11:43.716Z,163.21708
2022-10-14T17:16:45.227Z,147.30033
2022-10-14T17:18:23.314Z,142.07074
2022-10-14T17:20:38.560Z,135.90031
2022-10-14T17:25:38.933Z,150.02007
2022-10-14T17:30:40.527Z,188.44444
2022-10-14T17:35:42.144Z,196.45902
2022-10-14T17:40:43.843Z,160.90141
2022-10-14T17:45:45.452Z,148.65116
2022-10-14T17:50:47.018Z,149.33333
2022-10-14T17:55:50.682Z,164.78853
2022-10-14T18:00:54.450Z,164.78853
2022-10-14T18:05:56.040Z,169.64103
2022-10-14T18:10:57.622Z,157.88889
2022-10-14T18:15:59.232Z,164
2022-10-14T18:21:00.865Z,166.38267
2022-10-14T18:26:02.501Z,184.625
2022-10-14T18:31:04.150Z,197.49794
2022-10-14T18:36:05.772Z,189.41833
2022-10-14T18:41:07.418Z,206.12766
2022-10-14T18:46:09.031Z,205.01695
2022-10-14T18:51:10.628Z,225.27854
2022-10-14T18:56:12.326Z,209.51724
2022-10-14T19:01:13.961Z,208.37768
2022-10-14T19:06:15.694Z,208.37768
2022-10-14T19:11:17.297Z,221.47748
2022-10-14T19:16:18.912Z,225.27854
2022-10-14T19:21:20.541Z,214.17544
2022-10-14T19:26:22.180Z,220.23318
2022-10-14T19:31:23.786Z,224
2022-10-14T19:36:25.496Z,199.60166
2022-10-14T19:41:27.141Z,231.85047
2022-10-14T19:46:28.806Z,208.37768
2022-10-14T19:51:30.451Z,219
2022-10-14T19:56:32.031Z,296
2022-10-14T20:01:33.831Z,253.54774
2022-10-14T20:06:35.546Z,224
2022-10-14T20:11:37.226Z,231.85047
2022-10-14T20:16:38.801Z,225.27854
2022-10-14T20:21:40.429Z,237.33333
2022-10-14T20:26:42.071Z,269.92593
2022-10-14T20:31:43.726Z,263.17098
2022-10-14T20:36:45.326Z,245.96078
2022-10-14T20:41:46.958Z,259.89744
2022-10-14T20:46:48.529Z,222.73303
2022-10-14T20:51:50.109Z,208.37768
2022-10-14T20:56:51.735Z,206.12766
2022-10-14T21:01:53.358Z,162.43972
2022-10-14T21:06:54.985Z,209.51724
2022-10-14T21:11:56.575Z,245.96078
2022-10-14T21:16:58.202Z,208.37768
2022-10-14T21:21:59.850Z,183.68872
2022-10-14T21:27:01.449Z,237.33333
2022-10-14T21:32:03.054Z,269.92593
2022-10-14T21:37:04.712Z,284.33149
2022-10-14T21:42:06.291Z,357.42282
2022-10-14T21:47:08.029Z,315.08434
2022-10-14T21:52:09.653Z,315.08434
2022-10-14T21:57:11.255Z,282.46154
2022-10-14T22:02:12.846Z,231.85047
2022-10-14T22:07:14.451Z,261.52577
2022-10-14T22:12:16.055Z,286.22222
2022-10-14T22:17:17.625Z,259.89744
2022-10-14T22:22:19.211Z,259.89744
2022-10-14T22:27:21.079Z,302.13953
2022-10-14T22:32:22.887Z,319.60976
2022-10-14T22:37:24.808Z,308.49704
2022-10-14T22:47:29.019Z,244.4878
2022-10-14T22:52:30.612Z,127.8806
2022-10-14T22:57:32.200Z,206.12766
2022-10-14T23:02:33.885Z,206.12766
2022-10-14T23:07:35.508Z,131.23404
2022-10-14T23:12:37.094Z,131.80488
2022-10-14T23:17:38.691Z,121.01149
2022-10-14T23:22:40.279Z,130.10272
2022-10-14T23:27:41.903Z,150.02007
2022-10-14T23:32:43.542Z,118.0113
2022-10-14T23:37:45.114Z,87.92523
2022-10-14T23:44:49.497Z,126.24852
2022-10-14T23:49:51.139Z,111.3913
2022-10-14T23:54:52.823Z,105.67979
2022-10-14T23:59:54.561Z,112.30601
